Time;durP1;ratioP1;P1;durP2;ratioP2;P2;SDS_P1;SDS_P2;PMS_P1;PMS_P2;Temp;Humidity;BMP_temperature;BMP_pressure;BME280_temperature;BME280_humidity;BME280_pressure;Samples;Min_cycle;Max_cycle;Signal;HPM_P1;HPM_P2
2021/04/11 00:00:42;;;;;;;14.27;9.00;;;10.60;99.90;;;;;;5003831;28;20038;-75
2021/04/11 00:03:17;;;;;;;11.57;7.95;;;10.60;99.90;;;;;;4986571;28;20121;-78
2021/04/11 00:05:45;;;;;;;11.10;7.05;;;10.60;99.90;;;;;;4991284;28;20065;-78
2021/04/11 00:08:12;;;;;;;12.27;7.10;;;10.60;99.90;;;;;;4990472;28;20524;-78
2021/04/11 00:10:45;;;;;;;13.23;7.65;;;10.40;99.90;;;;;;4985985;28;20166;-75
2021/04/11 00:13:20;;;;;;;12.90;7.82;;;10.60;99.90;;;;;;4984549;28;20042;-78
2021/04/11 00:15:46;;;;;;;13.80;8.77;;;10.50;99.90;;;;;;4991141;28;20058;-81
2021/04/11 00:18:12;;;;;;;15.35;8.68;;;;;;;;;;4984772;28;20062;-78
2021/04/11 00:20:38;;;;;;;10.70;6.70;;;;;;;;;;4985976;28;20330;-77
2021/04/11 00:23:04;;;;;;;10.90;6.75;;;10.50;99.90;;;;;;4990246;28;20113;-78
2021/04/11 00:25:34;;;;;;;11.00;7.22;;;10.60;99.90;;;;;;4985382;28;20109;-78
2021/04/11 00:28:00;;;;;;;10.68;6.70;;;12.50;99.90;;;;;;4991914;28;20066;-76
2021/04/11 00:30:27;;;;;;;9.35;6.10;;;11.60;99.90;;;;;;4988209;28;20035;-78
2021/04/11 00:32:55;;;;;;;10.52;6.45;;;10.50;99.90;;;;;;5002585;28;20034;-76
2021/04/11 00:35:21;;;;;;;11.90;6.85;;;12.40;99.90;;;;;;4988183;28;20488;-76
2021/04/11 00:37:47;;;;;;;12.55;7.03;;;10.90;99.90;;;;;;4992917;28;20061;-76
2021/04/11 00:40:20;;;;;;;10.95;6.50;;;10.50;99.90;;;;;;4988433;28;20272;-77
2021/04/11 00:42:52;;;;;;;8.90;5.38;;;10.60;99.90;;;;;;4991754;28;20101;-78
2021/04/11 00:45:35;;;;;;;9.88;5.15;;;10.60;99.90;;;;;;4983745;28;20034;-77
2021/04/11 00:48:01;;;;;;;8.32;5.20;;;10.60;99.90;;;;;;4992121;28;20027;-77
2021/04/11 00:50:27;;;;;;;7.93;5.40;;;10.60;99.90;;;;;;4987500;28;20026;-77
2021/04/11 00:52:53;;;;;;;10.75;5.60;;;;;;;;;;4986492;28;20549;-77
2021/04/11 00:55:21;;;;;;;9.18;4.70;;;10.70;99.90;;;;;;4982073;28;20489;-80
2021/04/11 00:57:48;;;;;;;9.63;5.20;;;10.40;99.90;;;;;;4987699;28;20549;-75
2021/04/11 01:00:15;;;;;;;7.57;4.72;;;10.60;99.90;;;;;;4991073;28;20134;-76
2021/04/11 01:02:41;;;;;;;8.70;4.88;;;10.70;99.90;;;;;;4982723;28;20102;-77
2021/04/11 01:05:22;;;;;;;10.57;5.30;;;11.40;99.90;;;;;;4984401;28;20030;-77
2021/04/11 01:07:53;;;;;;;7.65;4.65;;;10.70;99.90;;;;;;5002705;28;20023;-79
2021/04/11 01:10:24;;;;;;;7.43;4.05;;;10.70;99.90;;;;;;4989208;28;20026;-77
2021/04/11 01:12:53;;;;;;;8.13;4.72;;;10.70;99.90;;;;;;4989026;28;20241;-75
2021/04/11 01:15:30;;;;;;;8.18;4.43;;;10.70;99.90;;;;;;4986599;28;20076;-78
2021/04/11 01:17:56;;;;;;;10.40;4.93;;;10.80;99.90;;;;;;4989104;28;20049;-76
2021/04/11 01:20:23;;;;;;;6.55;4.05;;;10.80;99.90;;;;;;5002574;28;20500;-77
2021/04/11 01:23:05;;;;;;;9.85;4.57;;;10.80;99.90;;;;;;4987368;28;20022;-77
2021/04/11 01:25:33;;;;;;;6.15;3.92;;;10.80;99.90;;;;;;4988423;28;20026;-78
2021/04/11 01:28:02;;;;;;;6.95;3.65;;;10.90;99.90;;;;;;4975025;28;20035;-77
2021/04/11 01:30:32;;;;;;;6.45;3.30;;;10.90;99.90;;;;;;4988588;28;20022;-77
2021/04/11 01:33:00;;;;;;;6.53;3.50;;;11.70;99.90;;;;;;5006630;28;20141;-78
2021/04/11 01:35:27;;;;;;;5.13;2.80;;;11.00;99.90;;;;;;4987853;28;20045;-78
2021/04/11 01:37:55;;;;;;;8.45;2.45;;;11.00;99.90;;;;;;4986941;28;20122;-78
2021/04/11 01:40:43;;;;;;;5.95;2.72;;;11.10;99.90;;;;;;4984199;28;20718;-79
2021/04/11 01:43:10;;;;;;;3.78;2.28;;;11.20;99.90;;;;;;4971176;28;20042;-78
2021/04/11 01:45:39;;;;;;;6.55;2.13;;;13.20;99.90;;;;;;4986781;28;20026;-78
2021/04/11 01:48:06;;;;;;;5.75;2.13;;;11.20;99.90;;;;;;4980077;28;20138;-78
2021/04/11 01:50:32;;;;;;;7.47;2.30;;;11.30;99.90;;;;;;4981151;28;20033;-79
2021/04/11 01:52:59;;;;;;;8.63;2.97;;;14.10;99.90;;;;;;4987138;28;20089;-76
2021/04/11 01:55:27;;;;;;;6.88;2.40;;;12.10;99.90;;;;;;4985486;28;20112;-76
2021/04/11 01:57:54;;;;;;;7.15;2.40;;;11.30;99.90;;;;;;4986907;28;20657;-77
2021/04/11 02:00:37;;;;;;;6.50;1.88;;;14.10;99.90;;;;;;4992742;28;20022;-78
2021/04/11 02:03:14;;;;;;;3.60;1.88;;;11.30;99.90;;;;;;4987642;28;20034;-79
2021/04/11 02:05:48;;;;;;;7.60;2.95;;;12.50;99.90;;;;;;4985163;28;20136;-77
2021/04/11 02:08:23;;;;;;;7.40;2.65;;;12.30;99.90;;;;;;4991717;28;20149;-77
2021/04/11 02:10:53;;;;;;;4.20;1.80;;;11.40;99.90;;;;;;4983774;28;20049;-76
2021/04/11 02:13:29;;;;;;;4.90;1.92;;;11.40;99.90;;;;;;4987741;28;20029;-76
2021/04/11 02:15:57;;;;;;;4.65;1.98;;;15.00;99.90;;;;;;4987977;28;20491;-78
2021/04/11 02:18:27;;;;;;;3.28;1.90;;;13.90;99.90;;;;;;4989958;28;20034;-77
2021/04/11 02:20:56;;;;;;;3.87;2.00;;;11.40;99.90;;;;;;4988991;28;20030;-78
2021/04/11 02:23:24;;;;;;;5.97;2.88;;;11.40;99.90;;;;;;4986447;28;20089;-78
2021/04/11 02:25:52;;;;;;;6.25;2.20;;;11.40;99.90;;;;;;4986860;28;20101;-78
2021/04/11 02:28:30;;;;;;;4.47;1.90;;;13.90;99.90;;;;;;4989000;28;20023;-78
2021/04/11 02:31:18;;;;;;;5.80;1.98;;;11.30;99.90;;;;;;4991475;28;20524;-77
2021/04/11 02:33:52;;;;;;;5.22;2.38;;;11.40;99.90;;;;;;5002062;28;20633;-77
2021/04/11 02:36:22;;;;;;;3.90;1.83;;;11.30;99.90;;;;;;4989918;28;20066;-77
2021/04/11 02:38:52;;;;;;;5.38;1.90;;;11.30;99.90;;;;;;4990185;28;20404;-74
2021/04/11 02:41:18;;;;;;;6.93;2.33;;;11.00;99.90;;;;;;4984902;28;20073;-77
2021/04/11 02:43:45;;;;;;;3.83;2.08;;;;;;;;;;4988833;28;20026;-75
2021/04/11 02:46:12;;;;;;;5.30;2.03;;;11.30;99.90;;;;;;4990519;28;20172;-78
2021/04/11 02:48:38;;;;;;;3.95;1.65;;;11.30;99.90;;;;;;4972238;28;20034;-79
2021/04/11 02:51:04;;;;;;;3.90;2.10;;;11.30;99.90;;;;;;4984832;28;21111;-78
2021/04/11 02:53:32;;;;;;;6.18;2.10;;;11.30;99.90;;;;;;4986086;28;20026;-78
2021/04/11 02:56:00;;;;;;;5.85;1.92;;;11.30;99.90;;;;;;4996448;28;20054;-78
2021/04/11 02:58:26;;;;;;;4.22;2.00;;;10.90;99.90;;;;;;4997302;28;20031;-78
2021/04/11 03:01:02;;;;;;;6.32;2.00;;;11.30;99.90;;;;;;5007198;28;20034;-77
2021/04/11 03:03:29;;;;;;;3.72;1.80;;;11.60;99.90;;;;;;4992656;28;20046;-78
2021/04/11 03:06:01;;;;;;;6.28;1.90;;;14.50;99.90;;;;;;4995658;28;20057;-78
2021/04/11 03:08:32;;;;;;;4.90;1.80;;;11.30;99.90;;;;;;4993220;28;20046;-78
2021/04/11 03:11:27;;;;;;;4.45;2.10;;;11.20;99.90;;;;;;4987372;28;20090;-75
2021/04/11 03:13:55;;;;;;;7.63;2.40;;;11.20;99.90;;;;;;4987988;28;20520;-77
2021/04/11 03:16:23;;;;;;;5.50;2.00;;;11.20;99.90;;;;;;4982139;28;20081;-78
2021/04/11 03:18:49;;;;;;;5.20;2.20;;;11.20;99.90;;;;;;4990020;28;20057;-77
2021/04/11 03:21:15;;;;;;;6.18;1.85;;;11.30;99.90;;;;;;4994052;28;20034;-78
2021/04/11 03:23:41;;;;;;;5.85;1.70;;;11.30;99.90;;;;;;4991925;28;20030;-77
2021/04/11 03:26:25;;;;;;;6.20;1.77;;;11.20;99.90;;;;;;4990542;28;20512;-76
2021/04/11 03:29:15;;;;;;;5.93;2.28;;;11.30;99.90;;;;;;4994060;28;20695;-74
2021/04/11 03:31:46;;;;;;;8.48;1.95;;;11.20;99.90;;;;;;5000843;28;20100;-79
2021/04/11 03:34:17;;;;;;;7.38;2.10;;;11.20;99.90;;;;;;4992712;28;20030;-78
2021/04/11 03:36:43;;;;;;;5.50;1.88;;;11.20;99.90;;;;;;4988172;28;20318;-77
2021/04/11 03:39:12;;;;;;;4.57;2.30;;;14.30;99.90;;;;;;4992397;28;20030;-78
2021/04/11 03:41:38;;;;;;;6.78;2.40;;;11.20;99.90;;;;;;4984430;28;20032;-77
2021/04/11 03:44:09;;;;;;;3.85;2.00;;;13.20;99.90;;;;;;4991595;28;20038;-79
2021/04/11 03:46:50;;;;;;;4.75;2.05;;;11.20;99.90;;;;;;4989163;28;20041;-77
2021/04/11 03:49:28;;;;;;;7.32;2.10;;;11.20;99.90;;;;;;4991105;28;20132;-77
2021/04/11 03:51:57;;;;;;;6.75;2.20;;;11.10;99.90;;;;;;4988962;28;20062;-78
2021/04/11 03:54:27;;;;;;;6.88;2.20;;;11.20;99.90;;;;;;4994871;28;20089;-76
2021/04/11 03:57:12;;;;;;;6.43;1.90;;;11.20;99.90;;;;;;4992513;28;20800;-78
2021/04/11 03:59:46;;;;;;;4.20;2.17;;;;;;;;;;4991386;28;20090;-77
2021/04/11 04:02:14;;;;;;;7.10;2.00;;;11.10;99.90;;;;;;4981918;28;20054;-78
2021/04/11 04:04:44;;;;;;;4.63;2.20;;;11.10;99.90;;;;;;5000439;28;20026;-78
2021/04/11 04:07:12;;;;;;;8.23;2.20;;;11.10;99.90;;;;;;4987897;28;20061;-76
2021/04/11 04:09:39;;;;;;;4.38;2.15;;;11.10;99.90;;;;;;4995004;28;20122;-77
2021/04/11 04:12:22;;;;;;;4.70;2.17;;;11.10;99.90;;;;;;4983881;28;20113;-78
2021/04/11 04:15:13;;;;;;;5.32;1.90;;;11.10;99.90;;;;;;4988878;28;20030;-78
2021/04/11 04:17:44;;;;;;;9.90;2.67;;;11.00;99.90;;;;;;5003742;28;20165;-80
2021/04/11 04:20:48;;;;;;;8.60;2.10;;;11.00;99.90;;;;;;4989109;28;20428;-78
2021/04/11 04:23:33;;;;;;;4.53;1.90;;;11.00;99.90;;;;;;4984570;28;20233;-77
2021/04/11 04:26:27;;;;;;;4.80;2.13;;;10.90;99.90;;;;;;4992028;28;20033;-78
2021/04/11 04:29:04;;;;;;;5.63;2.25;;;10.90;99.90;;;;;;4999342;28;20397;-78
2021/04/11 04:32:01;;;;;;;6.88;2.28;;;10.80;99.90;;;;;;4980623;28;20085;-77
2021/04/11 04:34:43;;;;;;;5.32;2.22;;;10.80;99.90;;;;;;4992355;28;20045;-77
2021/04/11 04:37:32;;;;;;;6.40;2.10;;;10.80;99.90;;;;;;4980500;28;20090;-77
2021/04/11 04:40:03;;;;;;;6.18;2.22;;;;;;;;;;4985663;28;20515;-78
2021/04/11 04:42:53;;;;;;;6.05;2.10;;;10.80;99.90;;;;;;4990343;28;20030;-77
2021/04/11 04:45:58;;;;;;;4.43;1.98;;;10.70;99.90;;;;;;4990037;28;20125;-78
2021/04/11 04:48:29;;;;;;;4.57;2.20;;;10.70;99.90;;;;;;4980009;28;20408;-78
2021/04/11 04:51:04;;;;;;;;;;;10.70;99.90;;;;;;4993341;28;20033;-77
2021/04/11 04:53:58;;;;;;;7.80;2.22;;;10.60;99.90;;;;;;4985122;28;19968;-77
2021/04/11 04:56:46;;;;;;;7.25;2.30;;;10.70;99.90;;;;;;4976714;28;20057;-78
2021/04/11 04:59:16;;;;;;;6.25;2.35;;;10.60;99.90;;;;;;4989023;28;20137;-75
2021/04/11 05:01:47;;;;;;;6.60;2.30;;;10.60;99.90;;;;;;4982459;28;20026;-77
2021/04/11 05:04:27;;;;;;;5.93;2.55;;;10.70;99.90;;;;;;4987074;28;20573;-75
2021/04/11 05:06:59;;;;;;;7.88;2.20;;;10.60;99.90;;;;;;4988931;28;20057;-77
2021/04/11 05:09:38;;;;;;;7.95;2.72;;;10.60;99.90;;;;;;4993443;28;20085;-77
2021/04/11 05:12:13;;;;;;;10.73;2.60;;;10.60;99.90;;;;;;4990045;28;20031;-77
2021/04/11 05:14:54;;;;;;;7.53;2.83;;;10.70;99.90;;;;;;4988949;28;20031;-77
2021/04/11 05:17:29;;;;;;;4.93;2.33;;;10.70;99.90;;;;;;4982997;28;20030;-77
2021/04/11 05:20:01;;;;;;;6.53;2.20;;;10.70;99.90;;;;;;4988569;28;20373;-78
2021/04/11 05:22:47;;;;;;;6.88;2.35;;;10.70;99.90;;;;;;4985385;28;20033;-77
2021/04/11 05:25:19;;;;;;;5.80;2.10;;;10.80;99.90;;;;;;4993312;28;20038;-77
2021/04/11 05:28:06;;;;;;;7.03;2.33;;;10.90;99.90;;;;;;4984257;28;20033;-77
2021/04/11 05:30:36;;;;;;;4.63;2.05;;;10.90;99.90;;;;;;4990012;28;20027;-76
2021/04/11 05:33:02;;;;;;;8.68;2.08;;;10.90;99.90;;;;;;4990982;28;20034;-78
2021/04/11 05:35:33;;;;;;;4.38;1.88;;;10.90;99.90;;;;;;4986952;28;20210;-76
2021/04/11 05:38:23;;;;;;;7.05;2.25;;;10.90;99.90;;;;;;4984853;28;20030;-78
2021/04/11 05:40:54;;;;;;;9.98;2.22;;;10.90;99.70;;;;;;4980045;28;20038;-77
2021/04/11 05:43:52;;;;;;;5.10;2.00;;;10.90;99.70;;;;;;4977551;28;20045;-77
2021/04/11 05:46:36;;;;;;;6.22;2.10;;;10.90;99.50;;;;;;4987525;28;20029;-77
2021/04/11 05:49:08;;;;;;;5.57;1.88;;;10.80;99.70;;;;;;4981615;28;20031;-76
2021/04/11 05:51:54;;;;;;;5.97;2.20;;;10.90;99.90;;;;;;4987904;28;20026;-77
2021/04/11 05:54:32;;;;;;;5.82;2.00;;;11.00;99.70;;;;;;4988443;28;20110;-77
2021/04/11 05:57:08;;;;;;;7.60;2.13;;;11.00;99.90;;;;;;4987699;28;20022;-77
2021/04/11 05:59:42;;;;;;;5.53;2.05;;;11.00;99.30;;;;;;4985596;28;20516;-77
2021/04/11 06:02:15;;;;;;;8.45;2.10;;;11.10;99.30;;;;;;4982375;28;20118;-77
2021/04/11 06:05:00;;;;;;;7.45;2.20;;;11.20;99.10;;;;;;4988286;28;20041;-77
2021/04/11 06:07:49;;;;;;;5.00;2.15;;;10.90;99.20;;;;;;4984930;28;20682;-77
2021/04/11 06:10:30;;;;;;;5.53;2.33;;;11.30;98.90;;;;;;4974956;28;20022;-77
2021/04/11 06:13:02;;;;;;;8.13;3.60;;;11.30;98.70;;;;;;4984023;28;20034;-77
2021/04/11 06:15:34;;;;;;;3.97;2.30;;;11.30;98.90;;;;;;4987773;28;20022;-77
2021/04/11 06:18:03;;;;;;;3.80;1.80;;;11.50;98.90;;;;;;4988393;28;20061;-80
2021/04/11 06:20:29;;;;;;;5.13;2.10;;;11.50;98.70;;;;;;4987859;28;20030;-77
2021/04/11 06:23:04;;;;;;;5.90;2.35;;;11.60;98.50;;;;;;4985792;28;20038;-77
2021/04/11 06:25:50;;;;;;;4.72;2.00;;;11.60;98.10;;;;;;4986257;28;20026;-77
2021/04/11 06:28:36;;;;;;;5.88;2.10;;;11.60;98.40;;;;;;4986620;28;20026;-81
2021/04/11 06:31:10;;;;;;;5.30;2.10;;;11.60;98.40;;;;;;4988197;28;20027;-77
2021/04/11 06:33:39;;;;;;;6.35;2.08;;;11.60;98.40;;;;;;4991276;28;20026;-76
2021/04/11 06:36:20;;;;;;;6.10;2.20;;;11.70;98.40;;;;;;4983556;28;20038;-77
2021/04/11 06:38:54;;;;;;;4.93;1.92;;;11.80;98.40;;;;;;4985232;28;20040;-77
2021/04/11 06:41:37;;;;;;;4.20;2.10;;;11.90;97.70;;;;;;4988093;28;20034;-77
2021/04/11 06:44:18;;;;;;;4.63;1.88;;;12.10;97.80;;;;;;4989316;28;20027;-78
2021/04/11 06:47:12;;;;;;;4.25;1.90;;;12.30;97.40;;;;;;4989342;28;20034;-78
2021/04/11 06:49:50;;;;;;;5.95;2.72;;;12.70;96.30;;;;;;4985862;28;20031;-79
2021/04/11 06:52:49;;;;;;;3.75;1.75;;;12.70;96.20;;;;;;4990398;28;20027;-80
2021/04/11 06:55:29;;;;;;;5.30;1.95;;;13.00;96.00;;;;;;5001061;28;20034;-79
2021/04/11 06:58:10;;;;;;;3.42;1.80;;;12.90;96.20;;;;;;4988625;28;20034;-79
2021/04/11 07:01:09;;;;;;;5.53;2.08;;;12.80;96.10;;;;;;4989646;28;20060;-79
2021/04/11 07:03:34;;;;;;;5.43;2.00;;;12.70;96.20;;;;;;4992865;28;20435;-77
2021/04/11 07:06:11;;;;;;;4.25;2.17;;;12.70;96.60;;;;;;4994700;28;20141;-78
2021/04/11 07:08:58;;;;;;;7.72;2.30;;;12.70;96.80;;;;;;4992802;28;20133;-75
2021/04/11 07:12:13;;;;;;;9.38;2.45;;;12.60;97.10;;;;;;4992520;28;20101;-79
2021/04/11 07:15:06;;;;;;;3.75;1.90;;;12.60;97.20;;;;;;4997011;28;20018;-77
2021/04/11 07:17:40;;;;;;;5.95;2.03;;;12.60;96.80;;;;;;4992346;28;20046;-76
2021/04/11 07:20:27;;;;;;;9.07;2.45;;;12.60;97.00;;;;;;5012286;28;20023;-78
2021/04/11 07:23:25;;;;;;;5.47;1.90;;;12.50;97.00;;;;;;4996638;28;20033;-80
2021/04/11 07:26:02;;;;;;;4.88;1.80;;;12.50;97.50;;;;;;4966137;28;20089;-78
2021/04/11 07:28:48;;;;;;;7.70;2.35;;;12.50;97.20;;;;;;4992913;28;20133;-78
2021/04/11 07:31:36;;;;;;;4.78;1.95;;;12.40;96.80;;;;;;4999920;28;20030;-79
2021/04/11 07:34:05;;;;;;;4.82;1.90;;;12.40;96.80;;;;;;4993633;28;20121;-75
2021/04/11 07:36:41;;;;;;;5.47;2.63;;;12.40;96.90;;;;;;5004484;28;20023;-79
2021/04/11 07:39:29;;;;;;;5.55;2.22;;;12.30;96.60;;;;;;4993235;28;20042;-77
2021/04/11 07:42:06;;;;;;;7.38;2.20;;;12.20;97.10;;;;;;4974214;28;20034;-77
2021/04/11 07:45:02;;;;;;;6.95;2.60;;;12.10;97.40;;;;;;4987317;28;20715;-80
2021/04/11 07:47:59;;;;;;;6.10;2.70;;;12.20;97.20;;;;;;4985648;28;20616;-77
2021/04/11 07:50:33;;;;;;;4.35;2.00;;;12.20;97.40;;;;;;4979998;28;20035;-78
2021/04/11 07:53:08;;;;;;;7.40;3.08;;;12.30;97.40;;;;;;5002830;28;20377;-79
2021/04/11 07:56:20;;;;;;;5.93;2.40;;;12.20;97.50;;;;;;4988415;28;20060;-77
2021/04/11 07:58:46;;;;;;;7.35;2.38;;;12.20;97.60;;;;;;4988806;28;20128;-77
2021/04/11 08:01:30;;;;;;;5.45;2.20;;;12.10;97.60;;;;;;4986872;28;20030;-75
2021/04/11 08:04:33;;;;;;;4.65;2.17;;;12.10;97.60;;;;;;4985712;28;20037;-78
2021/04/11 08:07:42;;;;;;;5.78;2.20;;;12.10;98.60;;;;;;4996167;28;20928;-75
2021/04/11 08:10:14;;;;;;;6.68;2.60;;;12.10;98.60;;;;;;5001210;28;20038;-77
2021/04/11 08:13:05;;;;;;;6.63;2.20;;;12.00;98.60;;;;;;4987688;28;20145;-78
2021/04/11 08:16:08;;;;;;;5.13;2.17;;;12.10;98.60;;;;;;4990267;28;20034;-77
2021/04/11 08:19:05;;;;;;;6.93;2.35;;;12.20;98.00;;;;;;4988138;28;20045;-78
2021/04/11 08:22:03;;;;;;;10.52;2.95;;;12.10;98.70;;;;;;5002140;28;20029;-79
2021/04/11 08:24:45;;;;;;;6.75;2.40;;;12.50;99.10;;;;;;4960822;28;20106;-77
2021/04/11 08:27:48;;;;;;;6.85;2.80;;;11.90;99.90;;;;;;4988614;28;20071;-74
2021/04/11 08:30:26;;;;;;;5.45;2.42;;;11.80;99.90;;;;;;4985057;28;20030;-78
2021/04/11 08:33:14;;;;;;;8.23;2.58;;;11.80;99.90;;;;;;4990694;28;20034;-77
2021/04/11 08:36:04;;;;;;;6.05;2.85;;;11.80;99.90;;;;;;4988529;28;20026;-76
2021/04/11 08:39:11;;;;;;;4.47;2.53;;;11.80;99.90;;;;;;4999717;28;20034;-80
2021/04/11 08:41:47;;;;;;;4.40;2.55;;;11.70;99.90;;;;;;4984189;28;20034;-77
2021/04/11 08:44:31;;;;;;;7.82;2.70;;;11.70;99.90;;;;;;4986420;28;20062;-76
2021/04/11 08:47:06;;;;;;;6.05;2.63;;;11.70;99.90;;;;;;4980261;28;20064;-75
2021/04/11 08:49:50;;;;;;;5.32;2.70;;;11.60;99.90;;;;;;4982606;28;20493;-76
2021/04/11 08:52:22;;;;;;;6.07;2.53;;;11.50;99.90;;;;;;4977324;28;20034;-76
2021/04/11 08:55:09;;;;;;;6.20;2.53;;;11.50;99.90;;;;;;5000178;28;20027;-78
2021/04/11 08:57:42;;;;;;;7.35;2.85;;;11.50;99.90;;;;;;5001357;28;20022;-76
2021/04/11 09:00:20;;;;;;;7.80;2.85;;;11.60;99.90;;;;;;4974069;28;20049;-78
2021/04/11 09:03:06;;;;;;;7.68;3.47;;;11.50;99.90;;;;;;5005216;28;20119;-76
2021/04/11 09:05:32;;;;;;;8.23;2.88;;;11.60;99.90;;;;;;5007054;28;20046;-77
2021/04/11 09:08:14;;;;;;;5.65;2.72;;;11.60;99.90;;;;;;4984909;28;20057;-77
2021/04/11 09:11:04;;;;;;;4.97;2.83;;;11.70;99.90;;;;;;4985774;28;20041;-75
2021/04/11 09:13:42;;;;;;;5.87;3.20;;;11.60;99.90;;;;;;4988244;28;20038;-79
2021/04/11 09:16:35;;;;;;;7.38;3.30;;;11.50;99.90;;;;;;5000868;28;20124;-76
2021/04/11 09:19:22;;;;;;;6.00;3.45;;;11.50;99.90;;;;;;4989006;28;20022;-79
2021/04/11 09:22:00;;;;;;;6.05;2.90;;;;;;;;;;4986619;28;20022;-77
2021/04/11 09:24:49;;;;;;;7.05;2.85;;;11.30;99.90;;;;;;4988760;28;20030;-77
2021/04/11 09:27:38;;;;;;;9.68;3.83;;;11.30;99.90;;;;;;4983623;28;20481;-76
2021/04/11 09:30:30;;;;;;;5.88;3.53;;;11.20;99.90;;;;;;4988960;28;20081;-78
2021/04/11 09:33:16;;;;;;;9.00;3.67;;;11.20;99.90;;;;;;4988807;28;20057;-77
2021/04/11 09:36:06;;;;;;;6.68;3.70;;;11.20;99.90;;;;;;4988121;28;23121;-80
2021/04/11 09:39:03;;;;;;;8.03;3.80;;;11.30;99.90;;;;;;5001826;28;20023;-75
2021/04/11 09:42:04;;;;;;;8.10;3.60;;;11.20;99.90;;;;;;4983888;28;20290;-76
2021/04/11 09:44:29;;;;;;;;;;;11.30;99.90;;;;;;4987765;28;20106;-76
2021/04/11 09:47:25;;;;;;;6.60;4.10;;;11.80;99.90;;;;;;4983052;28;20506;-77
2021/04/11 09:50:19;;;;;;;7.28;3.58;;;11.40;99.90;;;;;;4982908;28;20042;-77
2021/04/11 09:53:10;;;;;;;8.07;3.67;;;11.40;99.90;;;;;;4984493;28;20092;-76
2021/04/11 09:56:26;;;;;;;10.80;3.70;;;11.60;99.90;;;;;;4975688;28;20026;-76
2021/04/11 09:59:12;;;;;;;7.28;3.70;;;11.70;99.90;;;;;;4972065;28;20089;-79
2021/04/11 10:01:46;;;;;;;10.68;3.78;;;11.80;99.90;;;;;;4973617;28;20599;-77
2021/04/11 10:04:30;;;;;;;4.60;3.13;;;11.80;99.90;;;;;;4984060;28;20089;-77
2021/04/11 10:07:33;;;;;;;7.95;3.63;;;11.80;99.90;;;;;;4979592;28;20053;-78
2021/04/11 10:10:20;;;;;;;6.07;3.67;;;11.80;99.90;;;;;;4985798;28;20015;-79
2021/04/11 10:13:24;;;;;;;8.13;4.05;;;11.80;99.90;;;;;;4983187;28;20022;-77
2021/04/11 10:16:08;;;;;;;6.22;4.72;;;11.90;99.90;;;;;;4905330;29;20069;-78
2021/04/11 10:19:09;;;;;;;8.55;4.78;;;11.70;99.90;;;;;;4887093;29;20096;-77
2021/04/11 10:22:07;;;;;;;8.52;5.07;;;11.40;99.90;;;;;;4963329;28;20505;-76
2021/04/11 10:24:48;;;;;;;8.55;5.03;;;11.30;99.90;;;;;;4981996;28;20031;-78
2021/04/11 10:27:25;;;;;;;;;;;11.40;99.90;;;;;;4980664;28;20559;-75
2021/04/11 10:29:52;;;;;;;7.93;4.47;;;11.40;99.90;;;;;;4979373;28;19922;-79
2021/04/11 10:32:22;;;;;;;6.75;4.20;;;11.30;99.90;;;;;;4985528;28;20113;-77
2021/04/11 10:35:13;;;;;;;6.28;3.90;;;11.70;99.90;;;;;;4987285;28;20018;-76
2021/04/11 10:37:47;;;;;;;6.20;3.65;;;11.70;99.90;;;;;;4971141;28;20053;-77
2021/04/11 10:40:35;;;;;;;7.05;4.43;;;11.70;99.90;;;;;;4979478;28;20033;-77
2021/04/11 10:43:25;;;;;;;12.38;4.80;;;11.70;99.90;;;;;;4990979;28;20026;-76
2021/04/11 10:46:11;;;;;;;6.68;4.57;;;11.70;99.90;;;;;;4984922;28;20033;-78
2021/04/11 10:49:09;;;;;;;6.70;3.70;;;11.70;99.90;;;;;;4984935;28;20023;-78
2021/04/11 10:51:56;;;;;;;7.30;3.80;;;11.80;99.90;;;;;;4972853;28;20034;-76
2021/04/11 10:54:41;;;;;;;8.38;3.80;;;11.80;99.90;;;;;;4983902;28;20026;-77
2021/04/11 10:57:31;;;;;;;6.88;4.15;;;11.90;99.90;;;;;;4972813;28;20030;-78
2021/04/11 11:00:10;;;;;;;5.40;3.50;;;11.90;99.90;;;;;;4983259;28;20018;-77
2021/04/11 11:02:58;;;;;;;8.02;4.25;;;12.00;99.90;;;;;;4983016;28;20026;-77
2021/04/11 11:05:52;;;;;;;8.00;3.58;;;12.00;99.90;;;;;;4980074;28;20169;-77
2021/04/11 11:08:41;;;;;;;6.55;3.67;;;10.10;99.90;;;;;;4974693;28;20483;-77
2021/04/11 11:11:32;;;;;;;8.60;4.28;;;12.00;99.90;;;;;;4979115;28;20026;-77
2021/04/11 11:14:23;;;;;;;9.32;4.10;;;12.00;99.90;;;;;;4986382;28;20056;-76
2021/04/11 11:17:20;;;;;;;7.03;4.22;;;12.00;99.90;;;;;;4999096;28;20033;-75
2021/04/11 11:20:11;;;;;;;7.68;3.85;;;12.10;99.90;;;;;;4984471;28;20034;-78
2021/04/11 11:23:00;;;;;;;6.93;3.92;;;12.20;99.90;;;;;;5000730;28;20081;-75
2021/04/11 11:25:44;;;;;;;5.95;3.63;;;12.20;99.90;;;;;;4980845;28;20026;-78
2021/04/11 11:28:37;;;;;;;6.20;3.75;;;12.40;99.90;;;;;;4984500;28;20045;-78
2021/04/11 11:31:31;;;;;;;6.47;3.03;;;12.40;99.90;;;;;;4989210;28;20022;-77
2021/04/11 11:34:16;;;;;;;5.32;3.35;;;12.40;99.90;;;;;;4980709;28;20038;-75
2021/04/11 11:36:58;;;;;;;6.20;3.22;;;12.40;99.90;;;;;;5000108;28;20064;-77
2021/04/11 11:39:46;;;;;;;7.07;3.80;;;12.30;99.90;;;;;;4996515;28;20805;-76
2021/04/11 11:42:38;;;;;;;6.68;3.45;;;12.10;99.90;;;;;;4989086;28;20034;-77
2021/04/11 11:45:15;;;;;;;5.70;3.25;;;12.10;99.90;;;;;;4978517;28;20148;-78
2021/04/11 11:48:03;;;;;;;5.70;3.55;;;12.20;99.90;;;;;;4977999;28;20023;-77
2021/04/11 11:50:32;;;;;;;7.15;3.53;;;12.20;99.90;;;;;;4980784;28;20035;-77
2021/04/11 11:53:04;;;;;;;7.45;3.25;;;;;;;;;;4983536;28;20022;-79
2021/04/11 11:55:54;;;;;;;13.52;7.13;;;12.10;99.90;;;;;;4989946;28;20054;-76
2021/04/11 11:58:29;;;;;;;11.55;7.38;;;12.00;99.90;;;;;;4991760;28;20057;-76
2021/04/11 12:00:56;;;;;;;5.47;3.50;;;12.00;99.90;;;;;;4981695;28;20501;-75
2021/04/11 12:03:32;;;;;;;7.68;3.85;;;12.00;99.90;;;;;;4980249;28;20034;-78
2021/04/11 12:06:19;;;;;;;4.72;3.05;;;11.90;99.90;;;;;;4983221;28;20031;-76
2021/04/11 12:09:01;;;;;;;6.30;2.80;;;11.90;99.90;;;;;;4983773;28;20053;-78
2021/04/11 12:11:54;;;;;;;6.68;3.00;;;11.80;99.90;;;;;;4987830;28;20068;-77
2021/04/11 12:14:29;;;;;;;6.13;3.20;;;11.80;99.90;;;;;;4979770;28;20043;-78
2021/04/11 12:17:00;;;;;;;4.32;2.60;;;11.80;99.90;;;;;;4984534;28;20165;-76
2021/04/11 12:20:02;;;;;;;4.80;3.17;;;11.80;99.90;;;;;;4986592;28;20101;-76
2021/04/11 12:22:39;;;;;;;5.53;2.80;;;11.80;99.90;;;;;;4983308;28;20133;-77
2021/04/11 12:25:24;;;;;;;7.43;3.80;;;11.80;99.90;;;;;;4992044;28;20081;-77
2021/04/11 12:27:50;;;;;;;5.40;3.47;;;11.80;99.90;;;;;;4989889;28;20030;-80
2021/04/11 12:30:38;;;;;;;6.15;3.35;;;11.80;99.90;;;;;;4984998;28;20026;-77
2021/04/11 12:33:18;;;;;;;4.60;2.95;;;11.80;99.90;;;;;;4986928;28;20505;-77
2021/04/11 12:36:01;;;;;;;6.07;2.75;;;12.00;99.90;;;;;;4986320;28;20045;-80
2021/04/11 12:38:27;;;;;;;6.28;2.88;;;12.10;99.90;;;;;;4992349;28;20034;-76
2021/04/11 12:41:01;;;;;;;5.60;3.05;;;12.20;99.90;;;;;;4989505;28;20392;-78
2021/04/11 12:43:47;;;;;;;4.03;2.65;;;12.20;99.90;;;;;;4991348;28;20034;-78
2021/04/11 12:46:52;;;;;;;4.40;2.30;;;12.30;99.90;;;;;;4969484;28;20031;-79
2021/04/11 12:49:46;;;;;;;4.40;2.88;;;12.20;99.90;;;;;;4977419;28;20137;-79
2021/04/11 12:52:39;;;;;;;7.40;3.22;;;12.20;99.90;;;;;;4985002;28;20022;-77
2021/04/11 12:55:09;;;;;;;4.53;2.92;;;12.10;99.90;;;;;;5004395;28;20473;-78
2021/04/11 12:57:58;;;;;;;4.53;2.80;;;12.00;99.90;;;;;;4982207;28;20041;-79
2021/04/11 13:00:33;;;;;;;4.15;2.55;;;12.00;99.90;;;;;;4982454;28;20061;-76
2021/04/11 13:03:12;;;;;;;4.93;2.83;;;12.10;99.90;;;;;;4982306;28;20026;-76
2021/04/11 13:05:50;;;;;;;6.18;3.28;;;12.10;99.90;;;;;;4985828;28;20046;-77
2021/04/11 13:08:27;;;;;;;5.18;3.17;;;12.10;99.90;;;;;;4985113;28;20033;-78
2021/04/11 13:11:03;;;;;;;3.42;2.58;;;12.20;99.90;;;;;;4979683;28;20546;-80
2021/04/11 13:13:42;;;;;;;5.80;2.97;;;12.30;99.90;;;;;;4983248;28;20022;-77
2021/04/11 13:16:30;;;;;;;4.05;2.50;;;12.20;99.90;;;;;;4987365;28;20033;-78
2021/04/11 13:19:05;;;;;;;2.60;1.70;;;12.30;99.90;;;;;;4987822;28;20054;-78
2021/04/11 13:21:45;;;;;;;4.32;2.20;;;12.40;99.90;;;;;;4989347;28;20034;-77
2021/04/11 13:24:35;;;;;;;3.88;2.28;;;12.30;99.90;;;;;;4989935;28;20072;-77
2021/04/11 13:27:22;;;;;;;5.05;2.40;;;12.30;99.90;;;;;;4992943;28;20121;-77
2021/04/11 13:30:07;;;;;;;5.22;2.30;;;12.30;99.90;;;;;;4992634;28;20156;-75
2021/04/11 13:32:55;;;;;;;4.45;2.53;;;12.10;99.90;;;;;;4984323;28;20157;-79
2021/04/11 13:35:39;;;;;;;4.15;2.45;;;12.40;99.90;;;;;;4993811;28;20027;-78
2021/04/11 13:38:15;;;;;;;3.85;2.47;;;12.00;99.90;;;;;;4994804;28;20065;-79
2021/04/11 13:40:42;;;;;;;4.70;2.88;;;14.80;99.90;;;;;;4999564;28;20061;-75
2021/04/11 13:43:42;;;;;;;4.22;2.55;;;11.90;99.90;;;;;;5009058;28;20043;-76
2021/04/11 13:46:37;;;;;;;4.75;2.85;;;11.80;99.90;;;;;;4994431;28;20057;-76
2021/04/11 13:49:18;;;;;;;4.93;2.90;;;11.80;99.90;;;;;;4985923;28;20051;-78
2021/04/11 13:52:04;;;;;;;6.03;2.85;;;11.90;99.90;;;;;;4983913;28;20125;-77
2021/04/11 13:54:52;;;;;;;4.20;3.00;;;11.90;99.90;;;;;;4982003;28;20109;-79